Time;durP1;ratioP1;P1;durP2;ratioP2;P2;SDS_P1;SDS_P2;PMS_P1;PMS_P2;Temp;Humidity;BMP_temperature;BMP_pressure;BME280_temperature;BME280_humidity;BME280_pressure;Samples;Min_cycle;Max_cycle;Signal;HPM_P1;HPM_P2
2022/04/10 00:01:13;;;;;;;7.22;2.33;;;7.20;65.40;;;;;;5051253;28;20091;-65
2022/04/10 00:03:39;;;;;;;11.35;2.70;;;7.30;65.50;;;;;;5056321;28;20052;-64
2022/04/10 00:06:05;;;;;;;6.88;2.30;;;7.20;65.50;;;;;;5055458;28;20024;-65
2022/04/10 00:08:30;;;;;;;8.95;2.90;;;7.20;65.50;;;;;;5055211;28;20029;-65
2022/04/10 00:10:56;;;;;;;10.15;2.60;;;7.20;65.60;;;;;;5051523;28;20264;-65
2022/04/10 00:13:22;;;;;;;6.90;2.30;;;7.20;65.70;;;;;;5048642;28;20033;-65
2022/04/10 00:15:47;;;;;;;7.82;2.55;;;7.20;65.70;;;;;;5054372;28;20032;-65
2022/04/10 00:18:13;;;;;;;8.02;2.30;;;7.10;65.70;;;;;;5054855;28;20044;-65
2022/04/10 00:20:39;;;;;;;8.68;2.50;;;7.20;65.80;;;;;;5055165;28;20028;-65
2022/04/10 00:23:04;;;;;;;10.30;2.38;;;7.10;65.80;;;;;;5053802;28;20501;-65
2022/04/10 00:25:30;;;;;;;9.82;2.58;;;7.10;65.80;;;;;;5056041;28;20025;-64
2022/04/10 00:27:55;;;;;;;8.68;2.72;;;7.10;65.80;;;;;;5058042;28;20028;-65
2022/04/10 00:30:22;;;;;;;7.55;2.10;;;7.10;65.90;;;;;;5069252;28;20365;-65
2022/04/10 00:32:47;;;;;;;9.85;2.78;;;7.10;66.00;;;;;;5057634;28;20041;-65
2022/04/10 00:35:13;;;;;;;9.40;2.88;;;7.10;66.10;;;;;;5054845;28;20499;-65
2022/04/10 00:37:39;;;;;;;8.20;2.78;;;7.00;66.20;;;;;;5066635;28;20036;-65
2022/04/10 00:40:06;;;;;;;11.18;2.78;;;7.00;66.30;;;;;;5054454;28;20347;-64
2022/04/10 00:42:33;;;;;;;8.90;2.38;;;7.00;66.30;;;;;;5037367;28;20033;-64
2022/04/10 00:44:59;;;;;;;10.40;2.92;;;6.90;66.30;;;;;;5055770;28;20028;-65
2022/04/10 00:47:25;;;;;;;8.02;2.20;;;7.00;66.40;;;;;;5057653;28;20351;-65
2022/04/10 00:49:51;;;;;;;8.18;2.78;;;6.90;66.40;;;;;;5071799;28;20066;-64
2022/04/10 00:52:18;;;;;;;12.05;2.78;;;6.90;66.50;;;;;;5055876;28;20029;-65
2022/04/10 00:54:44;;;;;;;8.50;2.17;;;6.90;66.50;;;;;;5055035;28;20043;-65
2022/04/10 00:57:11;;;;;;;7.72;2.60;;;6.90;66.70;;;;;;5056556;28;20036;-65
2022/04/10 00:59:37;;;;;;;10.13;2.60;;;6.90;66.80;;;;;;5055124;28;20036;-64
2022/04/10 01:02:03;;;;;;;8.07;2.78;;;6.80;66.80;;;;;;5055103;28;20366;-65
2022/04/10 01:04:29;;;;;;;6.05;2.33;;;6.80;66.90;;;;;;5055257;28;20112;-65
2022/04/10 01:06:59;;;;;;;6.85;2.55;;;6.80;67.00;;;;;;5060724;28;20089;-65
2022/04/10 01:09:24;;;;;;;9.30;2.78;;;6.80;67.00;;;;;;5059851;28;20063;-65
2022/04/10 01:11:52;;;;;;;8.70;2.75;;;6.80;67.10;;;;;;5055102;28;20025;-65
2022/04/10 01:14:19;;;;;;;6.82;2.95;;;6.70;67.20;;;;;;5053618;28;20465;-65
2022/04/10 01:16:47;;;;;;;7.20;2.00;;;6.80;67.20;;;;;;5056679;28;20031;-64
2022/04/10 01:19:15;;;;;;;10.32;3.22;;;6.70;67.20;;;;;;5053736;28;20032;-65
2022/04/10 01:21:44;;;;;;;6.72;2.15;;;6.70;67.30;;;;;;5062834;28;20456;-65
2022/04/10 01:24:11;;;;;;;9.13;2.63;;;6.70;67.40;;;;;;5053457;28;20025;-65
2022/04/10 01:26:37;;;;;;;6.90;2.25;;;6.70;67.40;;;;;;5050783;28;20020;-65
2022/04/10 01:29:08;;;;;;;6.88;2.05;;;6.70;67.40;;;;;;5053677;28;20021;-65
2022/04/10 01:31:40;;;;;;;8.27;2.47;;;6.70;67.50;;;;;;5053685;28;20052;-64
2022/04/10 01:34:08;;;;;;;5.60;2.00;;;6.70;67.60;;;;;;5060350;28;20043;-64
2022/04/10 01:36:36;;;;;;;10.00;3.00;;;6.70;67.60;;;;;;5053382;28;20111;-65
2022/04/10 01:39:04;;;;;;;7.50;2.72;;;6.70;67.60;;;;;;5053364;28;20147;-65
2022/04/10 01:41:30;;;;;;;8.43;2.45;;;6.60;67.60;;;;;;5052917;28;20404;-65
2022/04/10 01:43:59;;;;;;;15.57;3.05;;;6.60;67.60;;;;;;5064756;28;20058;-65
2022/04/10 01:46:27;;;;;;;7.75;2.17;;;6.60;67.60;;;;;;5054233;28;20020;-65
2022/04/10 01:48:53;;;;;;;7.53;2.95;;;6.60;67.70;;;;;;5054951;28;20020;-65
2022/04/10 01:51:19;;;;;;;7.72;2.65;;;6.50;67.70;;;;;;5056909;28;20036;-66
2022/04/10 01:53:45;;;;;;;8.65;2.90;;;6.60;67.90;;;;;;5057963;28;20025;-64
2022/04/10 01:56:12;;;;;;;9.80;2.78;;;6.50;67.80;;;;;;5026632;28;20029;-65
2022/04/10 01:58:41;;;;;;;9.13;3.13;;;6.50;67.80;;;;;;5058878;28;20033;-65
2022/04/10 02:01:09;;;;;;;9.88;3.00;;;6.50;67.80;;;;;;5060931;28;20108;-64
2022/04/10 02:03:36;;;;;;;12.75;3.97;;;6.50;67.80;;;;;;5058948;28;20025;-65
2022/04/10 02:06:02;;;;;;;8.90;3.35;;;6.50;67.80;;;;;;5054993;28;20061;-65
2022/04/10 02:08:29;;;;;;;8.23;3.15;;;6.50;67.80;;;;;;5065089;28;20465;-64
2022/04/10 02:10:55;;;;;;;10.27;3.03;;;6.50;67.80;;;;;;5052924;28;20031;-65
2022/04/10 02:13:20;;;;;;;6.40;2.38;;;6.50;67.80;;;;;;5052684;28;20410;-65
2022/04/10 02:15:46;;;;;;;6.95;2.90;;;6.50;67.80;;;;;;5058264;28;20025;-65
2022/04/10 02:18:12;;;;;;;10.10;3.20;;;6.50;67.80;;;;;;5064167;28;20029;-65
2022/04/10 02:20:38;;;;;;;11.35;3.08;;;6.50;67.80;;;;;;5053579;28;20112;-65
2022/04/10 02:23:04;;;;;;;12.57;3.23;;;6.40;67.80;;;;;;5060323;28;20036;-65
2022/04/10 02:25:30;;;;;;;9.90;3.15;;;6.40;67.80;;;;;;5059244;28;20462;-65
2022/04/10 02:27:55;;;;;;;12.13;3.47;;;6.50;67.80;;;;;;5071530;28;20055;-65
2022/04/10 02:30:21;;;;;;;7.60;2.60;;;6.40;67.70;;;;;;5059655;28;20249;-65
2022/04/10 02:32:47;;;;;;;9.00;2.77;;;6.40;67.70;;;;;;5056350;28;20048;-65
2022/04/10 02:35:13;;;;;;;8.73;3.15;;;6.40;67.70;;;;;;5059795;28;20024;-65
2022/04/10 02:37:39;;;;;;;7.55;2.67;;;6.40;67.80;;;;;;5054128;28;20032;-65
2022/04/10 02:40:07;;;;;;;10.27;3.22;;;6.40;67.80;;;;;;5059198;28;20527;-64
2022/04/10 02:42:34;;;;;;;10.65;3.10;;;6.40;67.90;;;;;;5052822;28;20025;-65
2022/04/10 02:45:01;;;;;;;8.70;2.60;;;6.40;68.00;;;;;;5062523;28;20021;-64
2022/04/10 02:47:27;;;;;;;6.80;2.28;;;6.30;68.00;;;;;;5059542;28;20468;-65
2022/04/10 02:49:53;;;;;;;8.68;3.00;;;6.30;68.00;;;;;;5048068;28;20120;-65
2022/04/10 02:52:22;;;;;;;11.98;2.92;;;6.30;68.00;;;;;;5056822;28;20029;-64
2022/04/10 02:54:49;;;;;;;10.07;3.00;;;6.30;68.10;;;;;;5067827;28;20024;-65
2022/04/10 02:57:15;;;;;;;8.27;3.08;;;6.30;68.10;;;;;;5073007;28;20364;-65
2022/04/10 02:59:41;;;;;;;9.27;3.30;;;6.20;68.10;;;;;;5058373;28;20025;-64
2022/04/10 03:02:06;;;;;;;9.90;2.97;;;6.20;68.20;;;;;;5056556;28;20068;-65
2022/04/10 03:04:32;;;;;;;9.57;2.83;;;6.20;68.20;;;;;;5062182;28;20041;-65
2022/04/10 03:06:58;;;;;;;8.97;2.73;;;6.20;68.20;;;;;;5056561;28;20044;-65
2022/04/10 03:09:25;;;;;;;8.95;3.13;;;6.20;68.20;;;;;;5055877;28;20112;-65
2022/04/10 03:11:52;;;;;;;10.30;3.30;;;6.20;68.20;;;;;;5056409;28;20083;-65
2022/04/10 03:14:18;;;;;;;7.28;2.30;;;6.20;68.30;;;;;;5062930;28;20040;-65
2022/04/10 03:16:44;;;;;;;8.85;3.03;;;6.20;68.30;;;;;;5050074;28;20085;-65
2022/04/10 03:19:10;;;;;;;12.50;3.60;;;6.20;68.30;;;;;;5072365;28;20422;-65
2022/04/10 03:21:36;;;;;;;8.07;3.17;;;6.20;68.30;;;;;;5057243;28;20108;-65
2022/04/10 03:24:02;;;;;;;6.70;2.80;;;6.10;68.30;;;;;;5061210;28;20354;-65
2022/04/10 03:26:29;;;;;;;9.27;3.13;;;6.20;68.40;;;;;;5063945;28;20032;-65
2022/04/10 03:28:55;;;;;;;8.47;3.07;;;6.20;68.40;;;;;;5070876;28;20119;-65
2022/04/10 03:31:22;;;;;;;8.88;3.40;;;6.10;68.40;;;;;;5061208;28;20122;-65
2022/04/10 03:33:50;;;;;;;11.20;2.85;;;6.10;68.40;;;;;;5066722;28;20442;-65
2022/04/10 03:36:16;;;;;;;8.07;2.73;;;6.10;68.40;;;;;;5055932;28;20033;-65
2022/04/10 03:38:42;;;;;;;9.02;2.75;;;6.10;68.30;;;;;;5057012;28;20026;-65
2022/04/10 03:41:08;;;;;;;10.40;3.03;;;6.10;68.20;;;;;;5039056;28;20028;-65
2022/04/10 03:43:35;;;;;;;9.70;3.13;;;6.10;68.10;;;;;;5056671;28;20021;-64
2022/04/10 03:46:01;;;;;;;10.97;3.13;;;6.10;68.00;;;;;;5066353;28;20039;-65
2022/04/10 03:48:28;;;;;;;7.85;2.70;;;6.10;68.00;;;;;;5055787;28;20083;-65
2022/04/10 03:50:54;;;;;;;7.90;2.60;;;6.10;68.00;;;;;;5060793;28;20126;-65
2022/04/10 03:53:21;;;;;;;8.38;2.95;;;6.10;67.90;;;;;;5075824;28;20025;-65
2022/04/10 03:55:47;;;;;;;7.23;2.60;;;6.10;68.00;;;;;;5057793;28;20094;-65
2022/04/10 03:58:14;;;;;;;8.73;3.10;;;6.10;68.00;;;;;;5052281;28;20020;-65
2022/04/10 04:00:40;;;;;;;12.77;2.73;;;6.10;68.10;;;;;;5057870;28;20126;-65
2022/04/10 04:03:11;;;;;;;8.63;2.63;;;6.10;68.20;;;;;;5042579;28;20053;-65
2022/04/10 04:05:38;;;;;;;9.70;2.80;;;6.00;68.20;;;;;;5043389;28;20408;-65
2022/04/10 04:08:07;;;;;;;8.87;2.90;;;6.00;68.20;;;;;;5057622;28;20025;-65
2022/04/10 04:10:34;;;;;;;7.03;2.80;;;6.00;68.30;;;;;;5057850;28;20362;-65
2022/04/10 04:13:01;;;;;;;7.80;2.70;;;5.90;68.20;;;;;;5057110;28;20025;-65
2022/04/10 04:15:27;;;;;;;8.35;2.65;;;5.90;68.30;;;;;;5041161;28;20024;-65
2022/04/10 04:17:54;;;;;;;10.57;2.75;;;6.00;68.40;;;;;;5076660;28;20031;-65
2022/04/10 04:20:20;;;;;;;14.33;3.30;;;5.90;68.40;;;;;;5064342;28;20381;-65
2022/04/10 04:22:48;;;;;;;10.07;2.83;;;5.90;68.40;;;;;;5054745;28;20107;-65
2022/04/10 04:25:14;;;;;;;8.60;2.70;;;5.90;68.40;;;;;;5062259;28;20106;-65
2022/04/10 04:27:42;;;;;;;8.03;2.77;;;5.90;68.40;;;;;;5054680;28;20021;-65
2022/04/10 04:30:08;;;;;;;12.82;3.10;;;5.90;68.50;;;;;;5055988;28;20370;-65
2022/04/10 04:32:36;;;;;;;8.20;3.00;;;5.90;68.50;;;;;;5038042;28;20037;-65
2022/04/10 04:35:02;;;;;;;11.30;3.30;;;5.90;68.50;;;;;;5055847;28;20033;-65
2022/04/10 04:37:29;;;;;;;11.52;3.63;;;5.90;68.50;;;;;;5054530;28;20078;-65
2022/04/10 04:39:55;;;;;;;6.00;2.00;;;5.90;68.50;;;;;;5055272;28;20029;-65
2022/04/10 04:42:21;;;;;;;8.50;2.60;;;5.90;68.50;;;;;;5060679;28;20461;-65
2022/04/10 04:44:46;;;;;;;9.33;3.13;;;5.90;68.60;;;;;;5057901;28;20021;-66
2022/04/10 04:47:13;;;;;;;7.47;2.80;;;5.90;68.60;;;;;;5040258;28;20087;-65
2022/04/10 04:49:39;;;;;;;9.77;3.10;;;5.90;68.70;;;;;;5054013;28;20453;-65
2022/04/10 04:52:05;;;;;;;8.45;2.40;;;5.90;68.70;;;;;;5053143;28;20056;-65
2022/04/10 04:54:31;;;;;;;8.17;2.43;;;5.80;68.70;;;;;;5054248;28;20465;-65
2022/04/10 04:56:57;;;;;;;9.45;3.22;;;5.80;68.80;;;;;;5052793;28;20067;-65
2022/04/10 04:59:26;;;;;;;5.67;2.13;;;5.80;68.80;;;;;;5053257;28;20021;-66
2022/04/10 05:01:55;;;;;;;7.97;2.55;;;5.80;68.80;;;;;;5035802;28;21562;-67
2022/04/10 05:04:21;;;;;;;8.23;2.63;;;5.80;68.90;;;;;;5056703;28;20024;-66
2022/04/10 05:06:47;;;;;;;9.35;2.70;;;5.80;68.90;;;;;;5054677;28;20020;-66
2022/04/10 05:09:14;;;;;;;6.17;2.80;;;5.80;68.90;;;;;;5053943;28;20036;-66
2022/04/10 05:11:40;;;;;;;7.93;2.53;;;5.90;68.90;;;;;;5035257;28;20033;-66
2022/04/10 05:14:06;;;;;;;7.37;2.50;;;5.90;69.00;;;;;;5072533;28;20035;-66
2022/04/10 05:16:32;;;;;;;7.35;2.47;;;5.80;68.90;;;;;;5041190;28;20067;-66
2022/04/10 05:18:59;;;;;;;9.40;2.83;;;5.80;68.90;;;;;;5054540;28;20029;-66
2022/04/10 05:21:26;;;;;;;12.33;3.03;;;5.80;68.90;;;;;;5055626;28;20362;-66
2022/04/10 05:23:52;;;;;;;7.47;2.80;;;5.90;69.00;;;;;;5070462;28;20036;-66
2022/04/10 05:26:19;;;;;;;8.60;2.90;;;5.90;69.10;;;;;;5070523;28;20027;-67
2022/04/10 05:28:51;;;;;;;7.32;2.45;;;5.90;69.00;;;;;;5074485;28;20036;-66
2022/04/10 05:31:18;;;;;;;6.97;2.50;;;5.90;69.00;;;;;;5059348;28;20064;-67
2022/04/10 05:33:45;;;;;;;8.83;2.63;;;5.90;69.00;;;;;;5067708;28;20021;-66
2022/04/10 05:36:11;;;;;;;10.23;2.50;;;6.00;69.00;;;;;;5064973;28;20350;-67
2022/04/10 05:38:40;;;;;;;9.48;3.05;;;6.00;69.00;;;;;;5038336;28;20454;-66
2022/04/10 05:41:06;;;;;;;7.00;2.87;;;6.00;68.90;;;;;;5054284;28;20090;-66
2022/04/10 05:43:36;;;;;;;7.50;2.80;;;6.00;68.90;;;;;;5055406;28;20032;-66
2022/04/10 05:46:03;;;;;;;10.15;3.22;;;6.10;68.90;;;;;;5041710;28;20346;-66
2022/04/10 05:48:31;;;;;;;10.25;2.90;;;6.20;68.90;;;;;;5053196;28;20052;-66
2022/04/10 05:50:58;;;;;;;11.23;3.60;;;6.30;68.80;;;;;;5037719;28;20028;-64
2022/04/10 05:53:24;;;;;;;12.20;3.35;;;6.50;68.40;;;;;;5047111;28;20039;-64
2022/04/10 05:55:50;;;;;;;9.67;3.53;;;6.60;68.10;;;;;;5060569;28;20373;-64
2022/04/10 05:58:22;;;;;;;8.02;3.17;;;6.70;68.10;;;;;;5053517;28;20028;-65
2022/04/10 06:00:48;;;;;;;5.95;2.70;;;6.80;67.90;;;;;;5054578;28;20020;-65
2022/04/10 06:03:18;;;;;;;9.10;2.97;;;7.00;67.40;;;;;;5063025;28;20120;-65
2022/04/10 06:05:47;;;;;;;8.52;3.25;;;7.20;67.00;;;;;;5071496;28;20035;-65
2022/04/10 06:08:19;;;;;;;9.05;3.50;;;7.40;66.50;;;;;;5053720;28;20032;-65
2022/04/10 06:10:45;;;;;;;10.40;3.25;;;7.50;66.10;;;;;;5054043;28;20194;-65
2022/04/10 06:13:12;;;;;;;8.43;3.33;;;7.60;66.00;;;;;;5037843;28;20033;-65
2022/04/10 06:15:46;;;;;;;9.65;3.08;;;7.80;65.90;;;;;;5052671;28;20239;-64
2022/04/10 06:18:12;;;;;;;7.88;3.08;;;7.90;65.70;;;;;;5043759;28;20025;-64
2022/04/10 06:20:40;;;;;;;11.02;3.63;;;8.40;65.00;;;;;;5055658;28;20113;-64
2022/04/10 06:23:06;;;;;;;8.77;3.05;;;9.20;63.90;;;;;;5066272;28;20078;-64
2022/04/10 06:25:33;;;;;;;9.20;3.00;;;10.00;61.90;;;;;;5077423;28;20043;-65
2022/04/10 06:28:00;;;;;;;10.93;3.70;;;10.80;60.20;;;;;;5075885;28;20476;-65
2022/04/10 06:30:32;;;;;;;8.52;3.33;;;11.50;58.90;;;;;;5066658;28;20366;-65
2022/04/10 06:32:58;;;;;;;9.23;3.30;;;12.00;57.80;;;;;;5057502;28;20051;-64
2022/04/10 06:35:24;;;;;;;10.25;3.10;;;12.40;56.90;;;;;;5041416;28;20024;-65
2022/04/10 06:37:53;;;;;;;8.63;3.33;;;12.70;56.10;;;;;;5058070;28;20265;-65
2022/04/10 06:40:19;;;;;;;9.10;2.80;;;12.90;55.50;;;;;;5057166;28;20033;-65
2022/04/10 06:42:46;;;;;;;11.30;3.00;;;12.90;55.30;;;;;;5058201;28;20044;-65
2022/04/10 06:45:21;;;;;;;8.73;2.80;;;12.70;55.50;;;;;;5058103;28;20434;-66
2022/04/10 06:47:55;;;;;;;7.38;2.42;;;12.30;55.90;;;;;;5060389;28;20428;-65
2022/04/10 06:50:24;;;;;;;8.70;2.72;;;12.10;56.20;;;;;;5056644;28;20373;-65
2022/04/10 06:52:51;;;;;;;7.75;2.78;;;11.90;56.40;;;;;;5057697;28;20025;-65
2022/04/10 06:55:18;;;;;;;9.90;2.95;;;11.70;56.70;;;;;;5056171;28;20028;-65
2022/04/10 06:57:44;;;;;;;10.75;2.88;;;11.40;57.10;;;;;;5059363;28;20517;-65
2022/04/10 07:00:11;;;;;;;7.28;2.60;;;11.00;57.60;;;;;;5040585;28;20021;-65
2022/04/10 07:02:38;;;;;;;9.20;2.70;;;10.60;58.20;;;;;;5057397;28;20021;-65
2022/04/10 07:05:04;;;;;;;8.13;2.72;;;10.30;58.60;;;;;;5057177;28;20044;-65
2022/04/10 07:07:31;;;;;;;6.53;2.20;;;10.10;58.90;;;;;;5058076;28;20021;-65
2022/04/10 07:09:59;;;;;;;6.85;2.30;;;9.80;59.30;;;;;;5056689;28;20032;-66
2022/04/10 07:12:25;;;;;;;5.90;2.10;;;9.60;59.70;;;;;;5060356;28;20029;-65
2022/04/10 07:14:52;;;;;;;8.30;1.92;;;9.50;60.00;;;;;;5076978;28;20086;-65
2022/04/10 07:17:18;;;;;;;5.57;1.90;;;9.40;60.20;;;;;;5060910;28;20033;-66
2022/04/10 07:19:48;;;;;;;7.47;1.85;;;9.40;60.40;;;;;;5040700;28;20103;-65
2022/04/10 07:25:02;;;;;;;5.43;1.63;;;9.30;60.90;;;;;;5056744;28;20024;-66
2022/04/10 07:27:28;;;;;;;8.23;2.05;;;9.10;61.20;;;;;;5062183;28;20090;-66
2022/04/10 07:30:13;;;;;;;4.43;1.30;;;9.00;61.80;;;;;;5057687;28;20335;-65
2022/04/10 07:32:40;;;;;;;6.32;1.58;;;8.80;62.30;;;;;;5056060;28;20351;-65
2022/04/10 07:35:14;;;;;;;6.50;1.58;;;8.80;62.80;;;;;;5056773;28;20047;-65
2022/04/10 07:37:48;;;;;;;6.30;1.75;;;8.80;63.00;;;;;;5063768;28;20016;-65
2022/04/10 07:40:15;;;;;;;2.95;1.50;;;9.10;62.80;;;;;;5076193;28;20035;-65
2022/04/10 07:42:45;;;;;;;4.15;1.77;;;9.40;62.30;;;;;;5050167;28;20033;-65
2022/04/10 07:48:28;;;;;;;5.63;1.40;;;10.40;60.90;;;;;;5057495;28;20122;-65
2022/04/10 07:50:57;;;;;;;4.07;1.30;;;10.90;60.00;;;;;;5056404;28;20060;-66
2022/04/10 07:53:27;;;;;;;6.07;1.60;;;11.20;59.30;;;;;;5056514;28;20525;-65
2022/04/10 07:55:57;;;;;;;2.63;1.17;;;11.50;58.70;;;;;;5056380;28;20056;-66
2022/04/10 07:58:23;;;;;;;4.45;1.42;;;11.90;58.20;;;;;;5057244;28;20119;-65
2022/04/10 08:00:49;;;;;;;6.68;1.23;;;12.20;57.60;;;;;;5055961;28;20052;-65
2022/04/10 08:03:14;;;;;;;3.78;1.20;;;12.40;57.20;;;;;;5065575;28;20115;-65
2022/04/10 08:05:49;;;;;;;3.95;1.10;;;12.40;57.10;;;;;;5077650;28;20056;-65
2022/04/10 08:08:30;;;;;;;2.20;0.90;;;12.30;57.10;;;;;;5066408;28;20481;-65
2022/04/10 08:10:56;;;;;;;3.45;1.10;;;12.40;56.90;;;;;;5056743;28;20041;-66
2022/04/10 08:13:21;;;;;;;5.35;1.30;;;12.70;56.60;;;;;;5061644;28;20412;-66
2022/04/10 08:15:48;;;;;;;3.08;0.90;;;12.90;56.10;;;;;;5056407;28;20021;-65
2022/04/10 08:18:14;;;;;;;3.72;1.23;;;13.20;55.80;;;;;;5056958;28;20033;-66
2022/04/10 08:20:39;;;;;;;4.88;1.10;;;13.30;55.40;;;;;;5056972;28;20444;-66
2022/04/10 08:23:05;;;;;;;3.97;1.10;;;13.50;55.10;;;;;;5057989;28;20033;-66
2022/04/10 08:25:31;;;;;;;3.78;0.98;;;13.70;54.80;;;;;;5055928;28;20021;-66
2022/04/10 08:27:57;;;;;;;4.03;1.13;;;13.80;54.40;;;;;;5057776;28;20045;-66
2022/04/10 08:30:22;;;;;;;1.95;0.98;;;13.90;54.10;;;;;;5056820;28;20028;-66
2022/04/10 08:32:48;;;;;;;2.95;1.00;;;13.90;54.10;;;;;;5056319;28;20094;-66
2022/04/10 08:35:15;;;;;;;4.90;1.27;;;13.90;54.00;;;;;;5056916;28;20043;-66
2022/04/10 08:37:41;;;;;;;5.95;1.40;;;14.00;53.80;;;;;;5056918;28;20033;-66
2022/04/10 08:40:07;;;;;;;5.07;1.20;;;14.10;53.60;;;;;;5069747;28;20032;-66
2022/04/10 08:42:33;;;;;;;4.53;1.25;;;14.20;53.40;;;;;;5075607;28;20028;-66
2022/04/10 08:44:59;;;;;;;7.35;1.40;;;14.30;53.10;;;;;;5056032;28;20036;-66
2022/04/10 08:47:25;;;;;;;3.38;1.00;;;14.40;52.90;;;;;;5056043;28;20025;-66
2022/04/10 08:49:52;;;;;;;4.53;1.13;;;14.50;52.60;;;;;;5055021;28;20022;-67
2022/04/10 08:52:20;;;;;;;6.28;1.05;;;14.70;52.30;;;;;;5055902;28;20039;-66
2022/04/10 08:54:46;;;;;;;4.00;1.30;;;14.70;52.60;;;;;;5071943;28;20449;-67
2022/04/10 08:57:13;;;;;;;3.65;1.20;;;14.70;51.80;;;;;;5076106;28;20119;-67
2022/04/10 08:59:40;;;;;;;3.22;1.15;;;14.80;51.60;;;;;;5059544;28;20028;-67
2022/04/10 09:02:06;;;;;;;4.25;1.10;;;14.90;51.40;;;;;;5056028;28;20033;-67
2022/04/10 09:04:32;;;;;;;3.85;1.48;;;14.90;51.20;;;;;;5055877;28;20056;-66
2022/04/10 09:07:11;;;;;;;4.57;1.52;;;14.90;50.90;;;;;;5055794;28;20032;-67
2022/04/10 09:09:41;;;;;;;2.00;0.77;;;15.00;50.60;;;;;;5069451;28;20107;-66
2022/04/10 09:12:08;;;;;;;3.92;1.20;;;15.10;50.20;;;;;;5061445;28;20041;-66
2022/04/10 09:14:36;;;;;;;4.43;1.10;;;15.20;49.60;;;;;;5054325;28;20037;-67
2022/04/10 09:17:10;;;;;;;6.57;1.20;;;15.20;49.70;;;;;;5056441;28;20025;-67
2022/04/10 09:19:37;;;;;;;4.90;1.05;;;15.10;49.50;;;;;;5067632;28;20040;-67
2022/04/10 09:22:23;;;;;;;4.57;1.00;;;14.80;49.80;;;;;;5064638;28;20132;-66
2022/04/10 09:25:16;;;;;;;3.50;1.25;;;14.70;50.00;;;;;;5074182;28;20106;-67
2022/04/10 09:27:43;;;;;;;3.55;1.10;;;14.90;49.70;;;;;;5063460;28;20044;-67
2022/04/10 09:30:12;;;;;;;3.63;1.30;;;15.10;49.60;;;;;;5075491;28;20040;-67
2022/04/10 09:32:53;;;;;;;2.70;1.00;;;15.30;49.20;;;;;;5060813;28;20366;-67
2022/04/10 09:35:23;;;;;;;3.90;1.00;;;15.50;48.80;;;;;;5055230;28;20033;-66
2022/04/10 09:37:52;;;;;;;5.18;1.10;;;15.50;48.00;;;;;;5037326;28;20120;-66
2022/04/10 09:40:33;;;;;;;3.38;1.00;;;15.50;48.10;;;;;;5074142;28;20036;-67
2022/04/10 09:43:07;;;;;;;3.40;0.85;;;15.70;47.80;;;;;;5064877;28;20469;-66
2022/04/10 09:45:41;;;;;;;5.03;1.30;;;15.80;47.40;;;;;;5055200;28;20020;-66
2022/04/10 09:48:19;;;;;;;2.97;0.80;;;15.80;47.50;;;;;;5066198;28;20024;-65
2022/04/10 09:50:46;;;;;;;4.43;1.27;;;15.60;47.30;;;;;;5054770;28;20075;-65
2022/04/10 09:53:13;;;;;;;4.47;1.10;;;15.40;47.40;;;;;;5055793;28;20029;-67
2022/04/10 09:55:40;;;;;;;4.07;1.23;;;15.30;47.30;;;;;;5053579;28;20097;-66
2022/04/10 09:58:09;;;;;;;4.50;1.00;;;15.20;47.60;;;;;;5062544;28;20021;-66
2022/04/10 10:00:43;;;;;;;1.70;0.80;;;15.40;47.30;;;;;;5074798;28;20054;-66
2022/04/10 10:03:09;;;;;;;4.57;1.20;;;15.30;46.80;;;;;;5073068;28;20033;-66
2022/04/10 10:05:36;;;;;;;3.20;0.95;;;15.10;47.20;;;;;;5071933;28;20024;-66
2022/04/10 10:08:04;;;;;;;3.33;1.10;;;15.20;47.30;;;;;;5065176;28;20029;-66
2022/04/10 10:10:31;;;;;;;5.28;1.15;;;15.30;47.00;;;;;;5054386;28;20036;-66
2022/04/10 10:12:59;;;;;;;4.43;1.40;;;15.20;46.80;;;;;;5054062;28;20086;-66
2022/04/10 10:15:25;;;;;;;4.07;1.20;;;15.20;46.60;;;;;;5047057;28;20429;-65
2022/04/10 10:17:51;;;;;;;3.08;0.90;;;15.20;46.40;;;;;;5043895;28;20120;-66
2022/04/10 10:20:19;;;;;;;4.13;1.02;;;15.20;46.30;;;;;;5034522;28;20051;-66
2022/04/10 10:22:45;;;;;;;4.88;1.30;;;15.10;46.40;;;;;;5044077;28;20108;-66
2022/04/10 10:25:24;;;;;;;5.25;1.27;;;15.20;46.10;;;;;;5054426;28;20171;-66
2022/04/10 10:27:50;;;;;;;5.18;1.13;;;15.40;45.70;;;;;;5039846;28;20295;-66
2022/04/10 10:30:25;;;;;;;3.47;1.00;;;15.30;45.70;;;;;;5039523;28;20055;-66
2022/04/10 10:32:57;;;;;;;3.03;0.90;;;15.50;45.70;;;;;;5037928;28;20084;-66
2022/04/10 10:35:35;;;;;;;3.95;0.90;;;15.60;45.40;;;;;;5041525;28;20035;-67
2022/04/10 10:38:01;;;;;;;3.00;1.02;;;15.80;45.10;;;;;;5050180;28;20033;-65
2022/04/10 10:40:27;;;;;;;2.83;0.70;;;16.00;44.70;;;;;;5052965;28;20033;-66
2022/04/10 10:42:58;;;;;;;4.63;1.35;;;16.00;44.20;;;;;;5061329;28;20028;-67
2022/04/10 10:45:40;;;;;;;3.97;1.40;;;15.80;44.00;;;;;;5074167;28;20384;-66
2022/04/10 10:48:31;;;;;;;2.92;0.80;;;15.40;44.20;;;;;;5071362;28;20067;-66
2022/04/10 10:51:23;;;;;;;4.82;0.82;;;15.40;44.20;;;;;;5074105;28;20025;-66
2022/04/10 10:53:54;;;;;;;2.33;0.95;;;15.50;44.20;;;;;;5038399;28;20022;-66
2022/04/10 10:56:21;;;;;;;3.70;1.00;;;15.80;43.80;;;;;;5053002;28;20036;-66
2022/04/10 10:58:48;;;;;;;1.83;0.80;;;16.00;43.50;;;;;;5053690;28;20037;-66
2022/04/10 11:01:26;;;;;;;4.10;0.65;;;16.10;44.00;;;;;;5045871;28;20029;-66
2022/04/10 11:04:02;;;;;;;2.47;0.75;;;16.00;42.90;;;;;;5065961;28;20028;-65
2022/04/10 11:06:42;;;;;;;2.85;0.82;;;16.00;42.70;;;;;;5044095;28;20033;-66
2022/04/10 11:09:31;;;;;;;4.32;0.93;;;16.20;42.30;;;;;;5062326;28;20037;-66
2022/04/10 11:12:00;;;;;;;1.75;0.73;;;16.40;41.70;;;;;;5057409;28;20037;-66
2022/04/10 11:14:40;;;;;;;3.10;0.80;;;16.60;41.60;;;;;;5070373;28;20385;-66
2022/04/10 11:17:20;;;;;;;4.00;0.98;;;16.70;41.10;;;;;;5065289;28;20121;-65
2022/04/10 11:20:14;;;;;;;2.97;0.95;;;17.00;41.20;;;;;;5066260;28;20037;-65
2022/04/10 11:22:47;;;;;;;2.95;0.75;;;17.00;41.10;;;;;;5055198;28;20033;-66
2022/04/10 11:25:16;;;;;;;2.97;1.00;;;17.10;40.80;;;;;;5040000;28;20025;-66
2022/04/10 11:27:45;;;;;;;2.72;1.00;;;17.10;40.80;;;;;;5066863;28;20029;-66
2022/04/10 11:30:13;;;;;;;4.70;1.10;;;17.10;40.90;;;;;;5064176;28;20163;-65
2022/04/10 11:32:47;;;;;;;3.67;0.85;;;17.10;40.60;;;;;;5057228;28;20076;-65
2022/04/10 11:35:18;;;;;;;2.65;0.90;;;17.10;40.40;;;;;;5046694;28;20033;-65
2022/04/10 11:37:47;;;;;;;3.53;0.75;;;16.90;40.30;;;;;;5054031;28;20033;-65
2022/04/10 11:40:17;;;;;;;3.58;0.90;;;16.80;40.40;;;;;;5047679;28;20446;-65
2022/04/10 11:42:43;;;;;;;4.03;1.17;;;16.60;40.30;;;;;;5048602;28;20036;-65
2022/04/10 11:45:09;;;;;;;4.28;1.08;;;16.50;39.80;;;;;;5057090;28;20021;-65
2022/04/10 11:47:35;;;;;;;3.50;1.13;;;16.40;39.70;;;;;;5058831;28;20029;-66
2022/04/10 11:50:01;;;;;;;2.97;1.00;;;16.40;39.90;;;;;;5057481;28;20040;-66
2022/04/10 11:52:26;;;;;;;3.78;1.13;;;16.50;40.10;;;;;;5055773;28;20036;-66
2022/04/10 11:54:52;;;;;;;3.80;1.02;;;16.50;40.70;;;;;;5056242;28;20369;-65
2022/04/10 11:57:19;;;;;;;1.52;0.77;;;16.50;40.20;;;;;;5055602;28;20037;-64
2022/04/10 11:59:45;;;;;;;2.60;0.93;;;16.50;39.90;;;;;;5055304;28;20133;-64
2022/04/10 12:02:12;;;;;;;3.70;0.98;;;16.40;39.70;;;;;;5056445;28;20441;-64
2022/04/10 12:04:39;;;;;;;4.50;1.10;;;16.40;39.70;;;;;;5057584;28;20060;-64
2022/04/10 12:07:21;;;;;;;3.72;1.02;;;16.40;39.40;;;;;;5055966;28;20044;-64
2022/04/10 12:09:52;;;;;;;3.50;0.93;;;16.30;38.90;;;;;;5056903;28;20033;-64
2022/04/10 12:12:22;;;;;;;4.15;1.17;;;16.00;39.40;;;;;;5056513;28;20082;-64
2022/04/10 12:14:48;;;;;;;3.67;1.17;;;15.90;39.40;;;;;;5056875;28;20048;-64
2022/04/10 12:17:19;;;;;;;4.63;1.30;;;15.80;39.50;;;;;;5056664;28;20027;-64
2022/04/10 12:19:44;;;;;;;3.80;0.95;;;15.70;39.80;;;;;;5056415;28;20033;-64
2022/04/10 12:22:11;;;;;;;4.30;1.33;;;15.60;40.20;;;;;;5056333;28;20108;-64
2022/04/10 12:24:37;;;;;;;5.82;1.40;;;15.60;40.20;;;;;;5056182;28;20021;-65
2022/04/10 12:27:08;;;;;;;3.00;1.42;;;15.40;40.10;;;;;;5055557;28;20029;-64
2022/04/10 12:29:35;;;;;;;4.18;1.00;;;15.30;40.30;;;;;;5055205;28;20044;-64
2022/04/10 12:32:03;;;;;;;5.07;1.02;;;15.20;40.60;;;;;;5055072;28;20059;-64
2022/04/10 12:34:33;;;;;;;3.05;1.13;;;15.20;40.70;;;;;;5056812;28;20031;-64
2022/04/10 12:37:07;;;;;;;2.55;0.85;;;15.20;40.70;;;;;;5055986;28;20048;-64
2022/04/10 12:39:33;;;;;;;2.88;1.10;;;15.30;40.40;;;;;;5054790;28;20120;-64
2022/04/10 12:42:10;;;;;;;4.57;1.02;;;15.30;40.20;;;;;;5056199;28;20041;-64
2022/04/10 12:44:41;;;;;;;2.20;0.77;;;15.30;39.40;;;;;;5056010;28;20056;-65
2022/04/10 12:47:08;;;;;;;1.00;0.57;;;15.40;39.50;;;;;;5056308;28;20042;-64
2022/04/10 12:49:39;;;;;;;2.33;0.90;;;15.40;39.10;;;;;;5056172;28;20059;-64
2022/04/10 12:52:08;;;;;;;2.88;0.80;;;15.50;38.90;;;;;;5056049;28;20429;-65
2022/04/10 12:54:46;;;;;;;4.03;0.80;;;15.50;38.60;;;;;;5055843;28;20469;-64
2022/04/10 12:57:26;;;;;;;2.67;0.70;;;15.40;38.40;;;;;;5056110;28;20037;-64
2022/04/10 12:59:52;;;;;;;2.30;0.90;;;15.40;38.40;;;;;;5055580;28;20037;-64
2022/04/10 13:02:35;;;;;;;3.70;1.15;;;15.50;38.60;;;;;;5056012;28;20037;-64